createdAt,value
2023-04-14T00:00:45.199Z,94.40
2023-04-14T00:03:12.377Z,94.20
2023-04-14T00:05:39.590Z,94.60
2023-04-14T00:08:06.569Z,94.60
2023-04-14T00:10:33.572Z,94.80
2023-04-14T00:13:01.533Z,95.00
2023-04-14T00:15:28.533Z,95.60
2023-04-14T00:17:55.611Z,95.50
2023-04-14T00:20:22.560Z,95.80
2023-04-14T00:22:49.515Z,95.60
2023-04-14T00:25:16.566Z,95.50
2023-04-14T00:27:45.966Z,95.40
2023-04-14T00:30:12.957Z,95.70
2023-04-14T00:32:39.896Z,95.90
2023-04-14T00:35:07.149Z,95.70
2023-04-14T00:37:37.052Z,96.30
2023-04-14T00:40:11.017Z,96.00
2023-04-14T00:42:45.839Z,95.90
2023-04-14T00:45:14.004Z,95.60
2023-04-14T00:47:42.794Z,95.60
2023-04-14T00:50:10.568Z,95.60
2023-04-14T00:52:38.944Z,95.70
2023-04-14T00:55:06.734Z,95.50
2023-04-14T00:57:36.284Z,95.40
2023-04-14T01:00:05.374Z,95.60
2023-04-14T01:02:32.890Z,95.50
2023-04-14T01:05:00.403Z,95.40
2023-04-14T01:07:28.306Z,95.40
2023-04-14T01:09:57.234Z,96.00
2023-04-14T01:12:53.492Z,95.60
2023-04-14T01:15:29.194Z,96.20
2023-04-14T01:18:24.084Z,96.40
2023-04-14T01:20:56.690Z,96.40
2023-04-14T01:23:32.240Z,96.60
2023-04-14T01:26:19.161Z,96.60
2023-04-14T01:29:30.451Z,96.80
2023-04-14T01:32:10.550Z,96.60
2023-04-14T01:34:52.114Z,96.90
2023-04-14T01:37:31.850Z,96.80
2023-04-14T01:40:05.704Z,96.70
2023-04-14T01:42:36.686Z,96.80
2023-04-14T01:45:11.770Z,96.80
2023-04-14T01:47:40.566Z,96.50
2023-04-14T01:50:09.896Z,96.30
2023-04-14T01:52:38.448Z,96.30
2023-04-14T01:55:07.107Z,96.30
2023-04-14T01:57:35.869Z,96.20
2023-04-14T02:00:05.081Z,96.80
2023-04-14T02:02:33.388Z,96.60
2023-04-14T02:05:02.043Z,96.60
2023-04-14T02:07:30.184Z,96.40
2023-04-14T02:09:58.552Z,96.80
2023-04-14T02:12:28.296Z,96.60
2023-04-14T02:14:56.183Z,96.80
2023-04-14T02:17:24.553Z,96.80
2023-04-14T02:19:52.902Z,96.50
2023-04-14T02:22:19.982Z,96.70
2023-04-14T02:24:48.138Z,96.50
2023-04-14T02:27:18.818Z,96.60
2023-04-14T02:29:56.400Z,96.40
2023-04-14T02:32:25.779Z,96.50
2023-04-14T02:35:01.644Z,96.50
2023-04-14T02:37:37.684Z,96.30
2023-04-14T02:40:12.936Z,96.60
2023-04-14T02:42:45.002Z,96.60
2023-04-14T02:45:15.038Z,96.60
2023-04-14T02:47:46.241Z,96.60
2023-04-14T02:50:15.771Z,96.90
2023-04-14T02:52:47.220Z,97.10
2023-04-14T02:55:14.299Z,97.20
2023-04-14T02:57:41.506Z,97.90
2023-04-14T03:00:09.416Z,97.60
2023-04-14T03:02:38.586Z,97.60
2023-04-14T03:05:06.899Z,97.80
2023-04-14T03:07:34.710Z,97.70
2023-04-14T03:10:02.095Z,97.90
2023-04-14T03:12:29.941Z,98.20
2023-04-14T03:14:58.250Z,98.20
2023-04-14T03:17:26.120Z,98.40
2023-04-14T03:19:53.951Z,98.60
2023-04-14T03:22:22.223Z,98.30
2023-04-14T03:24:50.615Z,98.40
2023-04-14T03:27:22.958Z,98.90
2023-04-14T03:29:53.759Z,99.00
2023-04-14T03:32:26.577Z,98.80
2023-04-14T03:34:58.610Z,99.30
2023-04-14T03:37:27.524Z,99.40
2023-04-14T03:40:00.635Z,99.40
2023-04-14T03:42:29.703Z,99.70
2023-04-14T03:45:00.680Z,99.70
2023-04-14T03:47:31.734Z,99.60
2023-04-14T03:50:01.371Z,99.70
2023-04-14T03:52:33.191Z,99.80
2023-04-14T03:55:03.528Z,99.70
2023-04-14T03:57:32.940Z,99.70
2023-04-14T04:00:05.222Z,100.00
2023-04-14T04:02:33.313Z,99.90
2023-04-14T04:05:01.605Z,100.00
2023-04-14T04:07:31.037Z,99.80
2023-04-14T04:09:59.109Z,99.30
2023-04-14T04:12:26.490Z,99.50
2023-04-14T04:14:53.383Z,99.40
2023-04-14T04:17:24.043Z,99.60
2023-04-14T04:19:51.703Z,100.00
2023-04-14T04:22:21.929Z,100.00
2023-04-14T04:24:50.620Z,100.00
2023-04-14T04:27:27.743Z,100.00
2023-04-14T04:29:55.883Z,100.00
2023-04-14T04:32:23.590Z,100.00
2023-04-14T04:34:51.554Z,100.00
2023-04-14T04:37:19.924Z,100.00
2023-04-14T04:39:48.726Z,100.00
2023-04-14T04:42:16.505Z,100.00
2023-04-14T04:44:43.409Z,100.00
2023-04-14T04:47:11.672Z,100.00
2023-04-14T04:49:38.505Z,100.00
2023-04-14T04:52:05.485Z,100.00
2023-04-14T04:54:32.364Z,100.00
2023-04-14T04:57:00.030Z,100.00
2023-04-14T04:59:27.174Z,100.00
2023-04-14T05:01:54.093Z,100.00
2023-04-14T05:04:21.659Z,100.00
2023-04-14T05:06:48.552Z,100.00
2023-04-14T05:09:15.661Z,100.00
2023-04-14T05:11:42.577Z,100.00
2023-04-14T05:14:09.698Z,100.00
2023-04-14T05:16:36.726Z,99.90
2023-04-14T05:19:05.643Z,99.70
2023-04-14T05:21:36.550Z,99.30
2023-04-14T05:24:11.305Z,99.40
2023-04-14T05:29:10.712Z,99.10
2023-04-14T05:31:38.922Z,99.00
2023-04-14T05:34:06.125Z,98.80
2023-04-14T05:36:33.105Z,98.50
2023-04-14T05:39:00.308Z,98.60
2023-04-14T05:41:27.261Z,98.60
2023-04-14T05:43:54.488Z,98.50
2023-04-14T05:46:21.491Z,98.80
2023-04-14T05:48:49.541Z,98.60
2023-04-14T05:51:26.018Z,98.20
2023-04-14T05:54:01.042Z,97.70
2023-04-14T05:56:34.364Z,97.50
2023-04-14T05:59:05.189Z,97.40
2023-04-14T06:01:36.630Z,97.40
2023-04-14T06:04:07.159Z,97.10
2023-04-14T06:06:42.225Z,96.90
2023-04-14T06:09:09.463Z,96.70
2023-04-14T06:11:38.770Z,96.00
2023-04-14T06:14:09.684Z,95.70
2023-04-14T06:16:38.489Z,95.60
2023-04-14T06:19:05.685Z,95.30
2023-04-14T06:21:34.297Z,95.10
2023-04-14T06:24:07.385Z,94.90
2023-04-14T06:26:38.284Z,94.70
2023-04-14T06:29:08.680Z,94.80
2023-04-14T06:31:39.047Z,94.80
2023-04-14T06:34:06.467Z,94.70
2023-04-14T06:36:33.582Z,94.60
2023-04-14T06:39:06.277Z,94.10
2023-04-14T06:41:40.069Z,93.80
2023-04-14T06:44:13.071Z,93.40
2023-04-14T06:46:51.903Z,93.30
2023-04-14T06:49:22.195Z,93.20
2023-04-14T06:51:50.421Z,92.50
2023-04-14T06:54:17.473Z,92.50
2023-04-14T06:56:44.317Z,92.10
2023-04-14T06:59:11.209Z,92.20
2023-04-14T07:01:38.356Z,91.70
2023-04-14T07:04:07.688Z,91.70
2023-04-14T07:06:35.122Z,92.30
2023-04-14T07:09:01.973Z,91.50
2023-04-14T07:11:30.334Z,91.70
2023-04-14T07:13:57.473Z,92.00
2023-04-14T07:16:27.064Z,91.70
2023-04-14T07:18:53.927Z,91.30
2023-04-14T07:21:20.763Z,92.10
2023-04-14T07:23:47.606Z,92.40
2023-04-14T07:26:14.664Z,93.10
2023-04-14T07:28:42.522Z,92.90
2023-04-14T07:31:10.652Z,93.30
2023-04-14T07:33:37.627Z,92.90
2023-04-14T07:36:04.957Z,92.80
2023-04-14T07:38:35.273Z,92.50
2023-04-14T07:41:04.814Z,92.30
2023-04-14T07:43:35.517Z,92.30
2023-04-14T07:46:05.295Z,92.10
2023-04-14T07:48:39.280Z,92.50
2023-04-14T07:51:06.924Z,92.40
2023-04-14T07:53:34.574Z,92.50
2023-04-14T07:56:01.970Z,92.70
2023-04-14T07:58:29.620Z,92.50
2023-04-14T08:00:57.641Z,92.70
2023-04-14T08:03:32.462Z,92.20
2023-04-14T08:06:02.204Z,91.20
2023-04-14T08:08:29.340Z,91.20
2023-04-14T08:10:56.448Z,91.80
2023-04-14T08:13:29.576Z,90.80
2023-04-14T08:15:56.776Z,91.10
2023-04-14T08:18:23.736Z,90.20
2023-04-14T08:20:54.592Z,90.90
2023-04-14T08:23:23.788Z,90.80
2023-04-14T08:25:59.316Z,90.70
2023-04-14T08:28:30.511Z,91.00
2023-04-14T08:30:58.409Z,90.60
2023-04-14T08:33:26.208Z,90.40
2023-04-14T08:35:59.498Z,89.90
2023-04-14T08:38:29.322Z,90.70
2023-04-14T08:40:57.672Z,91.20
2023-04-14T08:43:24.747Z,91.10
2023-04-14T08:46:16.503Z,91.40
2023-04-14T08:49:03.720Z,90.60
2023-04-14T08:51:41.204Z,90.30
2023-04-14T08:54:12.747Z,90.60
2023-04-14T08:56:42.488Z,90.20
2023-04-14T08:59:11.351Z,91.40
2023-04-14T09:01:45.371Z,91.50
2023-04-14T09:04:14.532Z,91.30
2023-04-14T09:06:41.530Z,91.20
2023-04-14T09:09:08.865Z,91.00
2023-04-14T09:11:37.557Z,91.10
2023-04-14T09:14:05.140Z,91.80
2023-04-14T09:16:32.916Z,92.70
2023-04-14T09:19:07.377Z,91.80
2023-04-14T09:21:52.451Z,92.40
2023-04-14T09:24:31.195Z,93.20
2023-04-14T09:27:05.116Z,93.00
2023-04-14T09:29:33.316Z,93.60
2023-04-14T09:32:00.379Z,94.60
2023-04-14T09:34:27.434Z,94.70
2023-04-14T09:37:06.634Z,94.60
2023-04-14T09:39:52.907Z,96.20
2023-04-14T09:43:04.456Z,96.80
2023-04-14T09:45:45.097Z,98.40
2023-04-14T09:48:16.379Z,97.30
2023-04-14T09:50:58.643Z,97.80
2023-04-14T09:53:34.376Z,98.70
2023-04-14T09:56:06.518Z,99.70
2023-04-14T09:58:38.750Z,98.90
2023-04-14T10:01:16.398Z,99.10
2023-04-14T10:03:47.929Z,99.60
2023-04-14T10:06:22.334Z,98.20
2023-04-14T10:08:51.603Z,97.50
2023-04-14T10:11:27.650Z,98.50
2023-04-14T10:13:56.711Z,100.00
2023-04-14T10:16:24.576Z,100.00
2023-04-14T10:18:53.147Z,100.00
2023-04-14T10:21:24.543Z,99.90
2023-04-14T10:23:52.488Z,99.60
2023-04-14T10:26:20.059Z,100.00
2023-04-14T10:28:51.388Z,98.40
2023-04-14T10:31:29.367Z,99.10
2023-04-14T10:33:56.620Z,98.60
2023-04-14T10:36:28.841Z,99.10
2023-04-14T10:39:04.459Z,98.60
2023-04-14T10:41:47.671Z,97.70
2023-04-14T10:44:28.378Z,97.50
2023-04-14T10:46:57.103Z,98.60
2023-04-14T10:49:41.753Z,98.80
2023-04-14T10:52:14.869Z,98.90
2023-04-14T10:55:07.600Z,98.50
2023-04-14T10:57:42.381Z,98.30
2023-04-14T11:00:31.944Z,98.90
2023-04-14T11:02:59.084Z,98.00
2023-04-14T11:05:26.362Z,99.70
2023-04-14T11:08:01.441Z,99.40
2023-04-14T11:10:33.265Z,100.00
2023-04-14T11:13:08.503Z,99.30
2023-04-14T11:15:49.086Z,100.00
2023-04-14T11:18:32.552Z,100.00
2023-04-14T11:21:09.422Z,98.60
2023-04-14T11:23:37.613Z,98.90
2023-04-14T11:26:11.434Z,100.00
2023-04-14T11:28:41.466Z,100.00
2023-04-14T11:31:10.791Z,100.00
2023-04-14T11:33:39.782Z,100.00
2023-04-14T11:36:07.730Z,100.00
2023-04-14T11:38:36.142Z,100.00
2023-04-14T11:41:03.951Z,100.00
2023-04-14T11:43:30.882Z,100.00
2023-04-14T11:45:59.100Z,100.00
2023-04-14T11:48:28.314Z,100.00
2023-04-14T11:50:56.308Z,99.60
2023-04-14T11:53:23.133Z,98.90
2023-04-14T11:55:59.022Z,95.70
2023-04-14T11:58:27.304Z,98.90
2023-04-14T12:03:42.114Z,96.70
2023-04-14T12:06:11.875Z,98.40
2023-04-14T12:08:38.757Z,98.70
2023-04-14T12:11:15.726Z,99.20
2023-04-14T12:13:44.730Z,99.10
2023-04-14T12:16:16.184Z,99.30
2023-04-14T12:18:45.510Z,100.00
2023-04-14T12:21:26.539Z,98.00
2023-04-14T12:23:57.922Z,98.50
2023-04-14T12:26:28.432Z,97.60
2023-04-14T12:29:14.508Z,98.20
2023-04-14T12:35:24.399Z,97.00
2023-04-14T12:37:59.646Z,97.60
2023-04-14T12:40:52.372Z,98.10
2023-04-14T12:43:31.208Z,98.40
2023-04-14T12:46:04.052Z,98.80
2023-04-14T12:48:49.448Z,99.30
2023-04-14T12:51:33.010Z,99.00
2023-04-14T12:54:09.451Z,99.80
2023-04-14T12:56:43.296Z,99.70
2023-04-14T12:59:18.609Z,98.40
2023-04-14T13:01:47.105Z,99.90
2023-04-14T13:04:23.096Z,99.10
2023-04-14T13:06:53.687Z,99.90
2023-04-14T13:09:23.373Z,100.00
2023-04-14T13:11:54.179Z,100.00
2023-04-14T13:14:24.569Z,100.00
2023-04-14T13:17:01.298Z,100.00
2023-04-14T13:19:28.747Z,100.00
2023-04-14T13:22:04.719Z,100.00
2023-04-14T13:34:33.373Z,100.00
2023-04-14T13:37:03.686Z,100.00
2023-04-14T13:39:32.560Z,100.00
2023-04-14T13:42:08.971Z,100.00
2023-04-14T13:44:56.824Z,100.00
2023-04-14T13:47:37.940Z,100.00
2023-04-14T13:50:24.665Z,100.00
2023-04-14T13:53:18.323Z,100.00
2023-04-14T13:55:54.872Z,99.90
2023-04-14T13:58:29.839Z,100.00
2023-04-14T14:00:58.914Z,100.00
2023-04-14T14:03:31.537Z,100.00
2023-04-14T14:06:00.337Z,100.00
2023-04-14T14:08:27.700Z,100.00
2023-04-14T14:10:54.636Z,100.00
2023-04-14T14:13:22.072Z,100.00
2023-04-14T14:15:52.776Z,100.00
2023-04-14T14:18:19.812Z,100.00
2023-04-14T14:20:50.007Z,100.00
2023-04-14T14:23:20.759Z,100.00
2023-04-14T14:25:58.644Z,100.00
2023-04-14T14:28:28.655Z,100.00
2023-04-14T14:31:00.463Z,100.00
2023-04-14T14:33:27.879Z,99.20
2023-04-14T14:35:54.908Z,100.00
2023-04-14T14:38:21.991Z,100.00
2023-04-14T14:40:48.843Z,100.00
2023-04-14T14:43:15.816Z,100.00
2023-04-14T14:45:42.863Z,100.00
2023-04-14T14:48:11.710Z,100.00
2023-04-14T14:50:38.808Z,100.00
2023-04-14T14:53:05.987Z,100.00
2023-04-14T14:55:35.086Z,100.00
2023-04-14T14:58:03.912Z,100.00
2023-04-14T15:00:30.795Z,100.00
2023-04-14T15:02:57.972Z,100.00
2023-04-14T15:05:25.270Z,100.00
2023-04-14T15:07:52.144Z,100.00
2023-04-14T15:10:19.187Z,100.00
2023-04-14T15:12:46.052Z,100.00
2023-04-14T15:15:13.185Z,100.00
2023-04-14T15:17:40.233Z,100.00
2023-04-14T15:20:08.481Z,100.00
2023-04-14T15:22:36.087Z,100.00
2023-04-14T15:25:03.091Z,100.00
2023-04-14T15:27:30.133Z,100.00
2023-04-14T15:29:57.355Z,100.00
2023-04-14T15:32:26.830Z,100.00
2023-04-14T15:34:54.778Z,100.00
2023-04-14T15:37:21.828Z,100.00
2023-04-14T15:39:51.090Z,100.00
2023-04-14T15:42:18.001Z,100.00
2023-04-14T15:44:46.358Z,100.00
2023-04-14T15:47:13.167Z,100.00
2023-04-14T15:49:49.880Z,100.00
2023-04-14T15:52:19.425Z,100.00
2023-04-14T15:54:46.457Z,100.00
2023-04-14T15:57:13.398Z,100.00
2023-04-14T15:59:40.764Z,100.00
2023-04-14T16:02:11.141Z,100.00
2023-04-14T16:04:38.240Z,100.00
2023-04-14T16:07:05.177Z,100.00
2023-04-14T16:09:32.132Z,100.00
2023-04-14T16:11:59.009Z,100.00
2023-04-14T16:14:25.923Z,100.00
2023-04-14T16:16:53.338Z,100.00
2023-04-14T16:19:21.297Z,100.00
2023-04-14T16:21:48.544Z,100.00
2023-04-14T16:24:15.591Z,100.00
2023-04-14T16:26:42.936Z,100.00
2023-04-14T16:29:09.811Z,100.00
2023-04-14T16:31:37.187Z,100.00
2023-04-14T16:34:04.784Z,100.00
2023-04-14T16:36:31.733Z,100.00
2023-04-14T16:38:58.660Z,100.00
2023-04-14T16:41:26.038Z,100.00
2023-04-14T16:43:52.941Z,100.00
2023-04-14T16:46:19.878Z,100.00
2023-04-14T16:48:46.815Z,100.00
2023-04-14T16:51:13.711Z,100.00
2023-04-14T16:53:40.952Z,100.00
2023-04-14T16:56:09.511Z,100.00
2023-04-14T16:58:38.244Z,100.00
2023-04-14T17:01:06.488Z,100.00
2023-04-14T17:03:36.711Z,100.00
2023-04-14T17:06:04.685Z,100.00
2023-04-14T17:08:31.712Z,100.00
2023-04-14T17:11:12.126Z,100.00
2023-04-14T17:13:51.647Z,100.00
2023-04-14T17:16:31.082Z,100.00
2023-04-14T17:19:03.198Z,100.00
2023-04-14T17:24:22.890Z,100.00
2023-04-14T17:27:20.430Z,100.00
2023-04-14T17:33:47.418Z,100.00
2023-04-14T17:36:25.766Z,100.00
2023-04-14T17:38:57.807Z,100.00
2023-04-14T17:44:39.464Z,100.00
2023-04-14T17:47:15.345Z,100.00
2023-04-14T17:49:46.252Z,100.00
2023-04-14T17:52:38.390Z,100.00
2023-04-14T17:55:20.949Z,100.00
2023-04-14T17:57:51.574Z,100.00
2023-04-14T18:00:30.138Z,100.00
2023-04-14T18:03:05.833Z,100.00
2023-04-14T18:05:47.560Z,100.00
2023-04-14T18:08:19.062Z,100.00
2023-04-14T18:10:50.993Z,100.00
2023-04-14T18:13:19.120Z,100.00
2023-04-14T18:15:47.915Z,100.00
2023-04-14T18:18:15.643Z,100.00
2023-04-14T18:20:45.814Z,100.00
2023-04-14T18:23:12.820Z,100.00
2023-04-14T18:28:09.420Z,100.00
2023-04-14T18:30:38.106Z,100.00
2023-04-14T18:33:05.119Z,100.00
2023-04-14T18:35:33.647Z,100.00
2023-04-14T18:38:00.515Z,100.00
2023-04-14T18:40:27.823Z,100.00
2023-04-14T18:42:56.996Z,100.00
2023-04-14T18:45:24.174Z,100.00
2023-04-14T18:47:51.209Z,100.00
2023-04-14T18:50:20.292Z,100.00
2023-04-14T18:52:47.514Z,100.00
2023-04-14T18:55:18.855Z,100.00
2023-04-14T18:57:48.957Z,100.00
2023-04-14T19:00:16.677Z,100.00
2023-04-14T19:02:43.532Z,100.00
2023-04-14T19:05:11.745Z,100.00
2023-04-14T19:07:40.476Z,100.00
2023-04-14T19:10:07.953Z,100.00
2023-04-14T19:12:34.736Z,100.00
2023-04-14T19:15:02.914Z,100.00
2023-04-14T19:17:33.576Z,100.00
2023-04-14T19:20:01.122Z,100.00
2023-04-14T19:22:28.398Z,100.00
2023-04-14T19:24:55.856Z,100.00
2023-04-14T19:27:22.703Z,100.00
2023-04-14T19:29:49.569Z,100.00
2023-04-14T19:32:16.673Z,100.00
2023-04-14T19:34:43.479Z,100.00
2023-04-14T19:37:11.336Z,100.00
2023-04-14T19:39:38.202Z,100.00
2023-04-14T19:42:05.074Z,100.00
2023-04-14T19:44:32.221Z,100.00
2023-04-14T19:46:59.163Z,100.00
2023-04-14T19:49:26.273Z,100.00
2023-04-14T19:51:53.393Z,100.00
2023-04-14T19:54:20.468Z,100.00
2023-04-14T19:56:47.357Z,100.00
2023-04-14T19:59:14.118Z,100.00
2023-04-14T20:01:41.091Z,100.00
2023-04-14T20:04:12.095Z,100.00
2023-04-14T20:06:40.939Z,100.00
2023-04-14T20:09:07.796Z,100.00
2023-04-14T20:11:34.804Z,100.00
2023-04-14T20:14:01.603Z,100.00
2023-04-14T20:16:28.459Z,100.00
2023-04-14T20:18:55.500Z,100.00
2023-04-14T20:21:22.547Z,100.00
2023-04-14T20:23:49.373Z,100.00
2023-04-14T20:26:16.704Z,100.00
2023-04-14T20:28:43.829Z,100.00
2023-04-14T20:31:11.679Z,100.00
2023-04-14T20:33:38.477Z,100.00
2023-04-14T20:36:06.681Z,100.00
2023-04-14T20:38:34.501Z,100.00
2023-04-14T20:41:01.446Z,100.00
2023-04-14T20:43:33.470Z,100.00
2023-04-14T20:46:01.487Z,100.00
2023-04-14T20:48:29.149Z,100.00
2023-04-14T20:50:56.094Z,100.00
2023-04-14T20:53:26.525Z,100.00
2023-04-14T20:55:53.752Z,100.00
2023-04-14T20:58:20.636Z,100.00
2023-04-14T21:00:47.593Z,100.00
2023-04-14T21:03:14.528Z,100.00
2023-04-14T21:05:41.487Z,100.00
2023-04-14T21:08:09.664Z,100.00
2023-04-14T21:10:36.394Z,100.00
2023-04-14T21:15:43.494Z,100.00
2023-04-14T21:16:14.615Z,100.00
2023-04-14T21:18:41.557Z,100.00
2023-04-14T21:21:10.752Z,100.00
2023-04-14T21:23:37.782Z,100.00
2023-04-14T21:26:04.750Z,100.00
2023-04-14T21:28:32.633Z,100.00
2023-04-14T21:31:02.971Z,100.00
2023-04-14T21:33:30.252Z,100.00
2023-04-14T21:35:57.668Z,100.00
2023-04-14T21:38:25.193Z,100.00
2023-04-14T21:40:52.247Z,100.00
2023-04-14T21:43:19.087Z,100.00
2023-04-14T21:45:45.922Z,100.00
2023-04-14T21:48:12.756Z,100.00
2023-04-14T21:50:39.717Z,100.00
2023-04-14T21:53:06.570Z,100.00
2023-04-14T21:55:33.440Z,100.00
2023-04-14T21:58:01.734Z,100.00
2023-04-14T22:00:28.463Z,100.00
2023-04-14T22:02:55.440Z,100.00
2023-04-14T22:05:22.664Z,100.00
2023-04-14T22:07:49.766Z,100.00
2023-04-14T22:10:16.555Z,100.00
2023-04-14T22:12:44.648Z,100.00
2023-04-14T22:15:11.540Z,100.00
2023-04-14T22:17:38.872Z,100.00
2023-04-14T22:20:07.063Z,100.00
2023-04-14T22:22:36.977Z,100.00
2023-04-14T22:25:04.489Z,100.00
2023-04-14T22:27:33.846Z,100.00
2023-04-14T22:30:01.931Z,100.00
2023-04-14T22:32:28.805Z,100.00
2023-04-14T22:34:55.664Z,100.00
2023-04-14T22:37:22.456Z,100.00
2023-04-14T22:39:49.293Z,100.00
2023-04-14T22:42:16.073Z,100.00
2023-04-14T22:44:42.859Z,100.00
2023-04-14T22:47:09.657Z,100.00
2023-04-14T22:49:36.433Z,100.00
2023-04-14T22:52:03.310Z,100.00
2023-04-14T22:54:30.142Z,100.00
2023-04-14T22:56:57.137Z,100.00
2023-04-14T22:59:25.664Z,100.00
2023-04-14T23:01:53.523Z,100.00
2023-04-14T23:04:20.516Z,100.00
2023-04-14T23:06:47.938Z,100.00
2023-04-14T23:09:15.242Z,100.00
2023-04-14T23:11:42.075Z,100.00
2023-04-14T23:14:08.879Z,100.00
2023-04-14T23:16:35.959Z,100.00
2023-04-14T23:19:02.974Z,100.00
2023-04-14T23:21:30.200Z,100.00
2023-04-14T23:23:56.979Z,100.00
2023-04-14T23:26:23.748Z,100.00
2023-04-14T23:28:50.636Z,100.00
2023-04-14T23:31:17.946Z,100.00
2023-04-14T23:33:45.395Z,100.00
2023-04-14T23:36:13.455Z,100.00
2023-04-14T23:38:40.294Z,100.00
2023-04-14T23:41:07.168Z,100.00
2023-04-14T23:43:34.519Z,100.00
2023-04-14T23:46:01.920Z,100.00
2023-04-14T23:48:28.702Z,100.00
2023-04-14T23:50:58.943Z,100.00
2023-04-14T23:53:29.787Z,100.00
2023-04-14T23:55:56.602Z,100.00
2023-04-14T23:58:26.871Z,100.00
